createdAt,value
2023-02-09T00:00:13.022Z,29.50
2023-02-09T00:02:17.575Z,31.30
2023-02-09T00:04:22.304Z,27.67
2023-02-09T00:06:24.407Z,29.13
2023-02-09T00:08:26.178Z,33.38
2023-02-09T00:10:30.469Z,27.60
2023-02-09T00:12:54.432Z,32.17
2023-02-09T00:14:55.890Z,33.15
2023-02-09T00:16:57.322Z,27.70
2023-02-09T00:18:58.769Z,27.58
2023-02-09T00:21:07.446Z,29.88
2023-02-09T00:23:11.644Z,29.50
2023-02-09T00:25:13.066Z,28.52
2023-02-09T00:27:14.692Z,30.20
2023-02-09T00:29:23.870Z,30.10
2023-02-09T00:31:25.525Z,24.92
2023-02-09T00:33:45.621Z,27.60
2023-02-09T00:35:47.132Z,29.45
2023-02-09T00:37:48.599Z,35.67
2023-02-09T00:39:50.003Z,35.00
2023-02-09T00:42:06.095Z,33.53
2023-02-09T00:44:07.520Z,32.63
2023-02-09T00:46:09.401Z,31.50
2023-02-09T00:48:10.867Z,29.75
2023-02-09T00:50:12.308Z,37.58
2023-02-09T00:52:16.401Z,29.75
2023-02-09T00:54:17.950Z,31.15
2023-02-09T00:56:19.387Z,35.60
2023-02-09T00:58:20.913Z,28.33
2023-02-09T01:00:22.407Z,33.08
2023-02-09T01:04:30.987Z,32.40
2023-02-09T01:06:32.898Z,31.40
2023-02-09T01:08:37.005Z,30.38
2023-02-09T01:10:41.301Z,33.35
2023-02-09T01:12:45.722Z,31.27
2023-02-09T01:14:47.213Z,34.60
2023-02-09T01:16:48.658Z,27.75
2023-02-09T01:18:50.219Z,31.08
2023-02-09T01:20:54.487Z,31.48
2023-02-09T01:22:55.916Z,32.83
2023-02-09T01:25:00.386Z,35.50
2023-02-09T01:27:02.430Z,39.60
2023-02-09T01:29:06.532Z,41.78
2023-02-09T01:31:17.795Z,50.67
2023-02-09T01:33:19.318Z,54.28
2023-02-09T01:37:24.943Z,44.42
2023-02-09T01:39:44.892Z,42.55
2023-02-09T01:41:46.331Z,38.40
2023-02-09T01:43:51.922Z,43.42
2023-02-09T01:45:56.146Z,48.35
2023-02-09T01:47:59.838Z,46.40
2023-02-09T01:50:01.710Z,46.70
2023-02-09T01:52:14.506Z,48.85
2023-02-09T01:54:32.421Z,56.42
2023-02-09T01:56:33.911Z,51.72
2023-02-09T01:58:35.530Z,47.90
2023-02-09T02:00:41.822Z,47.10
2023-02-09T02:02:57.031Z,43.67
2023-02-09T02:05:10.045Z,42.08
2023-02-09T02:07:29.150Z,43.15
2023-02-09T02:09:38.647Z,44.88
2023-02-09T02:11:50.796Z,46.83
2023-02-09T02:13:57.419Z,47.20
2023-02-09T02:16:30.727Z,52.03
2023-02-09T02:18:44.550Z,53.10
2023-02-09T02:20:59.915Z,37.10
2023-02-09T02:23:24.325Z,46.20
2023-02-09T02:25:50.704Z,44.58
2023-02-09T02:28:22.234Z,42.75
2023-02-09T02:30:39.089Z,45.15
2023-02-09T02:32:51.396Z,48.22
2023-02-09T02:35:11.186Z,46.03
2023-02-09T02:37:38.541Z,36.85
2023-02-09T02:39:54.929Z,41.47
2023-02-09T02:42:17.609Z,42.78
2023-02-09T02:44:19.585Z,44.15
2023-02-09T02:46:21.050Z,52.58
2023-02-09T02:48:40.906Z,43.10
2023-02-09T02:50:48.327Z,39.17
2023-02-09T02:52:51.796Z,48.85
2023-02-09T02:54:57.356Z,36.72
2023-02-09T02:57:00.519Z,46.28
2023-02-09T02:59:03.949Z,45.65
2023-02-09T03:01:11.186Z,41.80
2023-02-09T03:03:21.211Z,52.63
2023-02-09T03:05:23.614Z,61.58
2023-02-09T03:07:25.111Z,61.35
2023-02-09T03:09:26.843Z,66.65
2023-02-09T03:11:31.104Z,61.13
2023-02-09T03:13:38.992Z,62.95
2023-02-09T03:15:50.282Z,55.53
2023-02-09T03:17:59.905Z,54.63
2023-02-09T03:20:07.949Z,44.05
2023-02-09T03:22:17.695Z,48.45
2023-02-09T03:24:27.683Z,42.85
2023-02-09T03:26:37.400Z,53.38
2023-02-09T03:28:39.962Z,47.80
2023-02-09T03:31:00.560Z,53.75
2023-02-09T03:33:05.365Z,51.30
2023-02-09T03:35:14.595Z,52.85
2023-02-09T03:37:17.440Z,50.35
2023-02-09T03:39:21.676Z,54.45
2023-02-09T03:41:23.133Z,50.85
2023-02-09T03:43:44.551Z,50.20
2023-02-09T03:45:48.902Z,46.05
2023-02-09T03:47:50.329Z,45.95
2023-02-09T03:50:10.680Z,48.55
2023-02-09T03:52:12.985Z,46.80
2023-02-09T03:54:17.719Z,45.90
2023-02-09T03:56:19.181Z,53.88
2023-02-09T03:58:23.213Z,45.88
2023-02-09T04:00:27.710Z,43.92
2023-02-09T04:02:30.007Z,41.05
2023-02-09T04:04:34.637Z,49.28
2023-02-09T04:06:36.265Z,37.65
2023-02-09T04:08:43.099Z,41.35
2023-02-09T04:10:47.314Z,46.53
2023-02-09T04:12:51.829Z,46.55
2023-02-09T04:14:56.267Z,48.05
2023-02-09T04:16:57.777Z,44.70
2023-02-09T04:18:59.225Z,46.00
2023-02-09T04:21:03.633Z,43.67
2023-02-09T04:23:07.607Z,46.95
2023-02-09T04:25:09.067Z,56.80
2023-02-09T04:27:13.584Z,51.72
2023-02-09T04:29:15.160Z,48.33
2023-02-09T04:33:21.343Z,48.50
2023-02-09T04:35:43.700Z,54.35
2023-02-09T04:37:45.917Z,49.58
2023-02-09T04:39:47.356Z,47.28
2023-02-09T04:41:49.085Z,50.53
2023-02-09T04:43:50.576Z,54.55
2023-02-09T04:45:52.310Z,44.63
2023-02-09T04:47:53.736Z,54.20
2023-02-09T04:49:57.822Z,48.92
2023-02-09T04:51:59.234Z,48.25
2023-02-09T04:54:00.683Z,53.42
2023-02-09T04:56:05.323Z,47.13
2023-02-09T04:58:29.268Z,52.90
2023-02-09T05:00:30.789Z,50.60
2023-02-09T05:02:32.202Z,53.38
2023-02-09T05:04:33.612Z,58.70
2023-02-09T05:06:36.174Z,57.47
2023-02-09T05:08:41.786Z,52.53
2023-02-09T05:10:45.136Z,67.97
2023-02-09T05:12:48.649Z,51.70
2023-02-09T05:14:55.041Z,56.75
2023-02-09T05:17:00.661Z,54.33
2023-02-09T05:19:04.616Z,52.55
2023-02-09T05:21:07.655Z,49.30
2023-02-09T05:23:10.863Z,54.55
2023-02-09T05:25:17.080Z,57.10
2023-02-09T05:27:20.653Z,53.75
2023-02-09T05:29:29.491Z,53.05
2023-02-09T05:31:38.889Z,55.22
2023-02-09T05:33:45.140Z,50.67
2023-02-09T05:35:47.122Z,48.40
2023-02-09T05:39:52.904Z,53.45
2023-02-09T05:42:13.144Z,58.90
2023-02-09T05:44:17.460Z,52.90
2023-02-09T05:46:21.841Z,62.85
2023-02-09T05:48:23.348Z,54.67
2023-02-09T05:50:43.631Z,55.67
2023-02-09T05:52:48.246Z,58.13
2023-02-09T05:54:52.487Z,49.17
2023-02-09T05:56:53.921Z,52.33
2023-02-09T05:58:55.624Z,54.45
2023-02-09T06:03:04.086Z,56.50
2023-02-09T06:05:05.742Z,52.85
2023-02-09T06:07:07.138Z,58.22
2023-02-09T06:11:12.865Z,47.88
2023-02-09T06:13:14.268Z,52.55
2023-02-09T06:17:38.490Z,56.53
2023-02-09T06:19:42.564Z,53.38
2023-02-09T06:21:44.575Z,62.78
2023-02-09T06:23:46.231Z,54.53
2023-02-09T06:25:48.316Z,56.08
2023-02-09T06:27:50.481Z,54.90
2023-02-09T06:29:54.566Z,57.30
2023-02-09T06:31:56.183Z,51.78
2023-02-09T06:33:57.845Z,54.63
2023-02-09T06:38:03.251Z,64.47
2023-02-09T06:40:07.552Z,62.15
2023-02-09T06:42:08.977Z,69.40
2023-02-09T06:44:11.424Z,64.22
2023-02-09T06:46:13.365Z,65.13
2023-02-09T06:48:33.820Z,59.70
2023-02-09T06:50:38.872Z,58.80
2023-02-09T06:52:43.396Z,66.60
2023-02-09T06:54:47.841Z,65.82
2023-02-09T06:56:49.261Z,58.97
2023-02-09T06:58:50.726Z,60.25
2023-02-09T07:02:56.698Z,57.95
2023-02-09T07:04:58.530Z,63.85
2023-02-09T07:07:00.069Z,57.45
2023-02-09T07:09:07.637Z,55.72
2023-02-09T07:11:10.581Z,62.28
2023-02-09T07:13:12.075Z,63.30
2023-02-09T07:15:14.088Z,64.55
2023-02-09T07:17:18.112Z,60.47
2023-02-09T07:19:19.548Z,61.85
2023-02-09T07:21:23.724Z,61.17
2023-02-09T07:23:25.757Z,58.42
2023-02-09T07:25:30.159Z,61.15
2023-02-09T07:27:34.562Z,68.75
2023-02-09T07:29:35.989Z,61.92
2023-02-09T07:31:37.665Z,65.13
2023-02-09T07:33:39.226Z,64.45
2023-02-09T07:37:44.904Z,59.67
2023-02-09T07:39:49.439Z,58.67
2023-02-09T07:41:51.122Z,61.30
2023-02-09T07:43:56.065Z,59.30
2023-02-09T07:46:17.454Z,53.38
2023-02-09T07:48:18.993Z,55.55
2023-02-09T07:50:23.113Z,55.65
2023-02-09T07:52:27.017Z,57.55
2023-02-09T07:54:28.587Z,58.85
2023-02-09T07:56:30.463Z,55.83
2023-02-09T07:58:32.142Z,58.00
2023-02-09T08:00:36.525Z,62.10
2023-02-09T08:02:40.817Z,62.38
2023-02-09T08:04:43.569Z,59.25
2023-02-09T08:06:45.923Z,63.47
2023-02-09T08:09:10.929Z,62.15
2023-02-09T08:11:27.719Z,56.10
2023-02-09T08:13:45.327Z,69.65
2023-02-09T08:15:59.907Z,57.95
2023-02-09T08:18:09.520Z,65.07
2023-02-09T08:20:24.700Z,57.85
2023-02-09T08:22:40.086Z,59.75
2023-02-09T08:24:52.776Z,51.28
2023-02-09T08:26:59.856Z,63.30
2023-02-09T08:29:11.907Z,59.83
2023-02-09T08:31:23.091Z,63.35
2023-02-09T08:33:32.087Z,58.30
2023-02-09T08:35:44.744Z,62.55
2023-02-09T08:37:55.483Z,69.18
2023-02-09T08:40:10.887Z,53.67
2023-02-09T08:42:21.747Z,58.33
2023-02-09T08:44:36.071Z,57.28
2023-02-09T08:46:42.226Z,64.57
2023-02-09T08:48:47.609Z,59.10
2023-02-09T08:50:49.086Z,54.03
2023-02-09T08:52:53.531Z,61.08
2023-02-09T08:54:57.926Z,62.17
2023-02-09T08:56:59.449Z,57.67
2023-02-09T08:59:20.227Z,67.07
2023-02-09T09:01:21.913Z,65.68
2023-02-09T09:05:48.314Z,53.20
2023-02-09T09:07:52.758Z,59.03
2023-02-09T09:09:54.324Z,57.50
2023-02-09T09:11:55.935Z,60.08
2023-02-09T09:14:00.350Z,64.00
2023-02-09T09:16:21.839Z,62.25
2023-02-09T09:18:24.562Z,60.72
2023-02-09T09:20:28.865Z,65.00
2023-02-09T09:22:30.485Z,69.15
2023-02-09T09:24:32.197Z,80.45
2023-02-09T09:26:36.685Z,76.95
2023-02-09T09:30:45.291Z,73.95
2023-02-09T09:32:53.121Z,92.55
2023-02-09T09:34:55.693Z,97.10
2023-02-09T09:37:03.203Z,83.78
2023-02-09T09:39:07.525Z,80.50
2023-02-09T09:41:19.861Z,74.05
2023-02-09T09:43:34.926Z,61.55
2023-02-09T09:45:38.147Z,63.92
2023-02-09T09:47:43.055Z,56.05
2023-02-09T09:49:44.567Z,57.30
2023-02-09T09:54:14.272Z,56.47
2023-02-09T09:56:16.971Z,46.10
2023-02-09T09:58:18.962Z,46.35
2023-02-09T10:00:25.956Z,44.95
2023-02-09T10:02:29.977Z,45.97
2023-02-09T10:04:34.506Z,42.53
2023-02-09T10:06:36.112Z,45.78
2023-02-09T10:08:45.705Z,48.30
2023-02-09T10:10:55.588Z,43.15
2023-02-09T10:13:03.295Z,51.05
2023-02-09T10:15:36.986Z,39.88
2023-02-09T10:17:41.365Z,39.95
2023-02-09T10:19:43.071Z,36.10
2023-02-09T10:21:44.919Z,40.50
2023-02-09T10:23:50.540Z,36.83
2023-02-09T10:25:57.709Z,35.95
2023-02-09T10:28:06.459Z,36.55
2023-02-09T10:30:19.071Z,34.65
2023-02-09T10:32:41.690Z,40.85
2023-02-09T10:34:54.148Z,38.65
2023-02-09T10:37:05.031Z,33.05
2023-02-09T10:39:12.110Z,26.80
2023-02-09T10:41:16.450Z,34.83
2023-02-09T10:43:22.550Z,30.27
2023-02-09T10:45:27.082Z,23.48
2023-02-09T10:47:30.747Z,30.75
2023-02-09T10:49:36.108Z,32.53
2023-02-09T10:52:14.980Z,33.75
2023-02-09T10:54:20.670Z,32.42
2023-02-09T10:56:24.510Z,27.60
2023-02-09T10:58:30.949Z,32.10
2023-02-09T11:00:37.171Z,29.48
2023-02-09T11:03:01.887Z,31.95
2023-02-09T11:05:23.396Z,27.85
2023-02-09T11:07:28.022Z,27.17
2023-02-09T11:09:36.253Z,33.65
2023-02-09T11:11:39.129Z,36.47
2023-02-09T11:13:40.852Z,39.00
2023-02-09T11:15:52.941Z,28.80
2023-02-09T11:18:20.192Z,28.10
2023-02-09T11:20:41.131Z,38.75
2023-02-09T11:22:54.388Z,32.42
2023-02-09T11:25:10.094Z,39.13
2023-02-09T11:27:31.806Z,44.05
2023-02-09T11:30:11.107Z,30.77
2023-02-09T11:32:26.011Z,41.70
2023-02-09T11:34:34.046Z,35.28
2023-02-09T11:36:45.951Z,40.45
2023-02-09T11:39:32.181Z,38.92
2023-02-09T11:42:03.390Z,31.13
2023-02-09T11:44:06.674Z,28.88
2023-02-09T11:46:21.773Z,38.08
2023-02-09T11:48:32.759Z,27.63
2023-02-09T11:50:37.709Z,25.80
2023-02-09T11:52:51.163Z,31.95
2023-02-09T11:54:55.281Z,28.48
2023-02-09T11:56:59.920Z,26.27
2023-02-09T11:59:09.051Z,26.38
2023-02-09T12:01:29.213Z,27.10
2023-02-09T12:03:33.519Z,26.42
2023-02-09T12:07:45.417Z,19.80
2023-02-09T12:10:05.453Z,30.85
2023-02-09T12:12:12.684Z,31.30
2023-02-09T12:14:23.504Z,16.63
2023-02-09T12:16:31.214Z,31.23
2023-02-09T12:18:34.944Z,29.73
2023-02-09T12:20:41.875Z,24.20
2023-02-09T12:22:47.665Z,23.58
2023-02-09T12:25:22.966Z,25.40
2023-02-09T12:27:27.337Z,26.90
2023-02-09T12:29:41.451Z,30.92
2023-02-09T12:32:01.529Z,27.48
2023-02-09T12:34:13.634Z,23.65
2023-02-09T12:36:18.175Z,22.20
2023-02-09T12:38:22.365Z,31.48
2023-02-09T12:40:24.351Z,24.83
2023-02-09T12:42:27.202Z,30.45
2023-02-09T12:44:28.608Z,25.50
2023-02-09T12:49:22.505Z,23.63
2023-02-09T12:51:56.098Z,29.08
2023-02-09T12:53:57.569Z,23.27
2023-02-09T12:56:04.139Z,18.30
2023-02-09T12:58:26.865Z,18.55
2023-02-09T13:00:32.003Z,17.13
2023-02-09T13:02:56.160Z,18.35
2023-02-09T13:05:00.618Z,15.95
2023-02-09T13:07:38.636Z,17.98
2023-02-09T13:10:19.532Z,17.10
2023-02-09T13:12:30.965Z,23.05
2023-02-09T13:14:32.732Z,18.08
2023-02-09T13:16:43.993Z,22.05
2023-02-09T13:18:57.109Z,16.00
2023-02-09T13:21:07.246Z,17.40
2023-02-09T13:25:22.066Z,23.13
2023-02-09T13:27:47.376Z,22.33
2023-02-09T13:29:53.620Z,17.90
2023-02-09T13:32:13.546Z,17.33
2023-02-09T13:34:20.537Z,25.08
2023-02-09T13:36:35.453Z,21.10
2023-02-09T13:38:55.652Z,17.60
2023-02-09T13:43:10.257Z,17.40
2023-02-09T13:45:30.597Z,18.52
2023-02-09T13:47:51.007Z,19.17
2023-02-09T13:49:57.075Z,19.77
2023-02-09T13:52:13.832Z,19.45
2023-02-09T13:54:19.897Z,24.25
2023-02-09T13:56:21.468Z,22.02
2023-02-09T13:58:27.620Z,22.88
2023-02-09T14:00:31.318Z,28.03
2023-02-09T14:02:53.362Z,19.90
2023-02-09T14:05:20.200Z,22.48
2023-02-09T14:07:23.861Z,27.25
2023-02-09T14:09:30.694Z,20.27
2023-02-09T14:11:43.126Z,23.27
2023-02-09T14:13:47.869Z,32.80
2023-02-09T14:16:09.428Z,24.05
2023-02-09T14:18:34.681Z,24.90
2023-02-09T14:20:40.640Z,25.48
2023-02-09T14:22:56.035Z,25.58
2023-02-09T14:25:01.124Z,23.77
2023-02-09T14:27:22.238Z,30.48
2023-02-09T14:29:30.040Z,29.88
2023-02-09T14:31:34.070Z,30.10
2023-02-09T14:33:37.366Z,28.52
2023-02-09T14:35:42.217Z,26.25
2023-02-09T14:37:47.477Z,26.50
2023-02-09T14:40:12.305Z,25.42
2023-02-09T14:42:33.195Z,29.40
2023-02-09T14:44:48.686Z,24.90
2023-02-09T14:46:57.897Z,28.95
2023-02-09T14:48:59.479Z,26.98
2023-02-09T14:53:08.330Z,35.40
2023-02-09T14:55:28.551Z,35.88
2023-02-09T14:57:32.014Z,24.27
2023-02-09T14:59:33.574Z,30.33
2023-02-09T15:01:40.701Z,28.52
2023-02-09T15:03:42.285Z,38.45
2023-02-09T15:07:53.134Z,34.50
2023-02-09T15:09:57.496Z,27.77
2023-02-09T15:12:26.644Z,31.80
2023-02-09T15:14:31.966Z,40.35
2023-02-09T15:16:36.133Z,44.70
2023-02-09T15:18:39.397Z,30.20
2023-02-09T15:20:59.730Z,37.00
2023-02-09T15:23:01.249Z,38.88
2023-02-09T15:25:02.696Z,28.65
2023-02-09T15:27:04.338Z,23.08
2023-02-09T15:29:10.413Z,24.73
2023-02-09T15:31:15.963Z,24.15
2023-02-09T15:33:17.980Z,33.42
2023-02-09T15:35:22.004Z,34.28
2023-02-09T15:37:32.830Z,27.55
2023-02-09T15:39:58.668Z,27.95
2023-02-09T15:42:24.450Z,45.03
2023-02-09T15:44:47.406Z,30.77
2023-02-09T15:47:09.942Z,23.88
2023-02-09T15:49:17.279Z,24.15
2023-02-09T15:51:18.777Z,26.00
2023-02-09T15:53:23.124Z,27.90
2023-02-09T15:55:31.024Z,25.73
2023-02-09T15:57:32.629Z,25.42
2023-02-09T15:59:34.069Z,26.90
2023-02-09T16:01:35.637Z,27.40
2023-02-09T16:04:08.359Z,24.48
2023-02-09T16:06:33.480Z,31.70
2023-02-09T16:08:54.514Z,29.42
2023-02-09T16:10:56.444Z,31.75
2023-02-09T16:13:01.166Z,30.15
2023-02-09T16:15:13.026Z,27.08
2023-02-09T16:17:14.608Z,28.10
2023-02-09T16:19:21.204Z,28.98
2023-02-09T16:21:29.121Z,23.73
2023-02-09T16:23:34.346Z,28.85
2023-02-09T16:25:35.770Z,26.92
2023-02-09T16:27:37.286Z,24.42
2023-02-09T16:31:45.405Z,32.22
2023-02-09T16:33:46.933Z,24.60
2023-02-09T16:35:52.077Z,23.67
2023-02-09T16:37:53.757Z,26.77
2023-02-09T16:39:55.469Z,35.25
2023-02-09T16:41:57.397Z,30.55
2023-02-09T16:44:04.399Z,27.17
2023-02-09T16:46:10.586Z,28.33
2023-02-09T16:48:18.638Z,32.25
2023-02-09T16:50:22.991Z,28.55
2023-02-09T16:52:43.450Z,26.55
2023-02-09T16:54:48.784Z,31.83
2023-02-09T16:56:54.582Z,29.02
2023-02-09T16:58:56.303Z,28.92
2023-02-09T17:03:05.182Z,38.80
2023-02-09T17:05:20.755Z,36.47
2023-02-09T17:07:30.080Z,43.92
2023-02-09T17:09:34.689Z,37.67
2023-02-09T17:11:54.931Z,31.98
2023-02-09T17:13:59.109Z,38.25
2023-02-09T17:16:04.553Z,33.00
2023-02-09T17:18:07.321Z,39.00
2023-02-09T17:20:15.381Z,40.58
2023-02-09T17:22:19.588Z,38.33
2023-02-09T17:24:21.185Z,39.30
2023-02-09T17:26:43.606Z,41.00
2023-02-09T17:30:50.848Z,42.80
2023-02-09T17:33:17.601Z,37.75
2023-02-09T17:35:53.076Z,35.42
2023-02-09T17:37:55.689Z,38.28
2023-02-09T17:40:19.003Z,38.90
2023-02-09T17:42:23.074Z,37.85
2023-02-09T17:44:45.098Z,43.05
2023-02-09T17:46:52.175Z,30.15
2023-02-09T17:48:57.908Z,36.10
2023-02-09T17:51:07.970Z,36.10
2023-02-09T17:53:25.342Z,58.38
2023-02-09T17:55:33.124Z,41.58
2023-02-09T17:57:36.335Z,49.50
2023-02-09T17:59:39.274Z,33.65
2023-02-09T18:01:45.751Z,32.15
2023-02-09T18:03:47.384Z,34.60
2023-02-09T18:05:51.147Z,32.35
2023-02-09T18:07:53.044Z,36.15
2023-02-09T18:09:57.410Z,38.83
2023-02-09T18:12:04.685Z,35.38
2023-02-09T18:14:25.512Z,33.88
2023-02-09T18:16:27.392Z,45.85
2023-02-09T18:18:47.604Z,34.35
2023-02-09T18:20:49.167Z,40.72
2023-02-09T18:22:53.473Z,48.95
2023-02-09T18:25:00.076Z,56.13
2023-02-09T18:27:01.545Z,49.08
2023-02-09T18:29:09.031Z,46.40
2023-02-09T18:31:14.398Z,38.38
2023-02-09T18:33:16.497Z,47.92
2023-02-09T18:35:22.424Z,44.70
2023-02-09T18:37:42.304Z,39.08
2023-02-09T18:39:46.520Z,42.47
2023-02-09T18:41:54.876Z,43.25
2023-02-09T18:43:56.834Z,35.35
2023-02-09T18:45:58.549Z,42.45
2023-02-09T18:48:00.394Z,33.65
2023-02-09T18:50:21.443Z,35.47
2023-02-09T18:52:25.211Z,47.67
2023-02-09T18:54:31.067Z,42.75
2023-02-09T18:56:35.596Z,48.28
2023-02-09T18:58:40.109Z,52.88
2023-02-09T19:00:41.579Z,45.35
2023-02-09T19:02:44.266Z,37.03
2023-02-09T19:04:45.878Z,40.88
2023-02-09T19:06:50.858Z,41.38
2023-02-09T19:08:52.335Z,40.33
2023-02-09T19:10:53.793Z,40.22
2023-02-09T19:12:59.589Z,35.97
2023-02-09T19:15:01.368Z,31.92
2023-02-09T19:17:03.332Z,34.58
2023-02-09T19:19:09.315Z,31.15
2023-02-09T19:21:13.523Z,45.17
2023-02-09T19:25:19.917Z,43.67
2023-02-09T19:27:26.075Z,37.55
2023-02-09T19:29:28.937Z,40.90
2023-02-09T19:31:30.755Z,38.33
2023-02-09T19:33:32.272Z,40.13
2023-02-09T19:35:33.738Z,42.47
2023-02-09T19:37:36.256Z,44.72
2023-02-09T19:39:39.884Z,38.95
2023-02-09T19:41:41.348Z,38.33
2023-02-09T19:43:42.838Z,41.58
2023-02-09T19:46:02.856Z,44.90
2023-02-09T19:48:07.764Z,47.53
2023-02-09T19:50:09.677Z,44.20
2023-02-09T19:52:11.092Z,43.15
2023-02-09T19:54:15.140Z,43.55
2023-02-09T19:56:35.101Z,42.85
2023-02-09T19:58:55.419Z,45.30
2023-02-09T20:00:56.912Z,44.35
2023-02-09T20:05:05.532Z,43.83
2023-02-09T20:07:07.258Z,43.17
2023-02-09T20:09:08.770Z,31.73
2023-02-09T20:11:16.108Z,41.08
2023-02-09T20:13:36.554Z,33.67
2023-02-09T20:15:45.979Z,31.83
2023-02-09T20:19:54.418Z,43.28
2023-02-09T20:21:56.255Z,34.00
2023-02-09T20:23:57.780Z,37.00
2023-02-09T20:26:02.166Z,46.75
2023-02-09T20:28:03.880Z,39.40
2023-02-09T20:30:23.843Z,34.50
2023-02-09T20:32:28.714Z,37.40
2023-02-09T20:34:35.064Z,38.63
2023-02-09T20:36:51.203Z,40.03
2023-02-09T20:39:02.799Z,37.88
2023-02-09T20:41:15.239Z,34.17
2023-02-09T20:43:39.778Z,37.65
2023-02-09T20:46:08.593Z,26.52
2023-02-09T20:48:16.553Z,28.25
2023-02-09T20:50:25.222Z,17.92
2023-02-09T20:52:36.128Z,13.82
2023-02-09T20:54:48.168Z,18.38
2023-02-09T20:57:15.114Z,14.05
2023-02-09T20:59:21.403Z,14.02
2023-02-09T21:01:28.950Z,16.38
2023-02-09T21:03:41.310Z,12.52
2023-02-09T21:05:52.971Z,20.65
2023-02-09T21:08:14.023Z,23.55
2023-02-09T21:10:18.133Z,20.73
2023-02-09T21:12:22.841Z,24.42
2023-02-09T21:14:41.259Z,21.13
2023-02-09T21:16:46.478Z,19.05
2023-02-09T21:18:48.010Z,21.08
2023-02-09T21:20:52.955Z,23.40
2023-02-09T21:22:54.679Z,25.08
2023-02-09T21:27:04.060Z,25.27
2023-02-09T21:29:08.861Z,20.52
2023-02-09T21:31:11.476Z,18.88
2023-02-09T21:33:12.897Z,19.05
2023-02-09T21:35:15.321Z,19.67
2023-02-09T21:37:17.150Z,21.50
2023-02-09T21:39:18.601Z,15.80
2023-02-09T21:41:40.001Z,21.15
2023-02-09T21:43:44.586Z,20.30
2023-02-09T21:45:48.946Z,21.45
2023-02-09T21:48:08.826Z,17.08
2023-02-09T21:50:13.048Z,18.25
2023-02-09T21:52:14.527Z,24.42
2023-02-09T21:54:17.116Z,22.40
2023-02-09T21:56:37.358Z,16.88
2023-02-09T21:58:41.914Z,20.98
2023-02-09T22:00:43.499Z,13.32
2023-02-09T22:04:50.159Z,12.35
2023-02-09T22:06:51.693Z,17.95
2023-02-09T22:08:53.536Z,17.45
2023-02-09T22:11:04.412Z,14.00
2023-02-09T22:13:09.561Z,13.90
2023-02-09T22:15:11.129Z,12.68
2023-02-09T22:17:15.415Z,14.43
2023-02-09T22:19:16.919Z,15.68
2023-02-09T22:21:21.100Z,16.35
2023-02-09T22:23:27.008Z,14.68
2023-02-09T22:25:29.080Z,20.58
2023-02-09T22:27:30.653Z,17.35
2023-02-09T22:29:34.988Z,21.85
2023-02-09T22:31:36.481Z,17.80
2023-02-09T22:33:37.957Z,19.80
2023-02-09T22:35:40.044Z,22.10
2023-02-09T22:37:41.542Z,15.98
2023-02-09T22:39:44.938Z,23.85
2023-02-09T22:41:49.548Z,18.90
2023-02-09T22:43:52.121Z,15.95
2023-02-09T22:45:56.674Z,13.68
2023-02-09T22:47:58.152Z,13.90
2023-02-09T22:49:59.793Z,14.45
2023-02-09T22:52:04.209Z,22.02
2023-02-09T22:54:08.888Z,30.02
2023-02-09T22:56:13.854Z,21.77
2023-02-09T22:58:20.887Z,18.10
2023-02-09T23:00:40.945Z,23.90
2023-02-09T23:02:45.066Z,22.95
2023-02-09T23:04:49.377Z,19.98
2023-02-09T23:06:50.922Z,21.50
2023-02-09T23:08:59.967Z,24.05
2023-02-09T23:11:05.430Z,22.10
2023-02-09T23:13:06.908Z,27.48
2023-02-09T23:17:12.641Z,14.55
2023-02-09T23:19:18.719Z,19.33
2023-02-09T23:21:21.196Z,19.45
2023-02-09T23:23:22.606Z,21.02
2023-02-09T23:25:24.398Z,24.27
2023-02-09T23:27:25.821Z,17.38
2023-02-09T23:29:28.064Z,20.83
2023-02-09T23:31:32.586Z,20.00
2023-02-09T23:33:35.204Z,21.17
2023-02-09T23:35:55.009Z,17.13
2023-02-09T23:38:02.589Z,19.60
2023-02-09T23:40:24.169Z,20.00
2023-02-09T23:42:30.433Z,16.95
2023-02-09T23:44:36.850Z,19.45
2023-02-09T23:46:40.677Z,16.05
2023-02-09T23:48:45.603Z,21.17
2023-02-09T23:50:51.655Z,15.20
2023-02-09T23:52:54.920Z,19.63
2023-02-09T23:55:16.269Z,13.65
2023-02-09T23:57:21.047Z,16.27
2023-02-09T23:59:24.729Z,18.20
